Time;durP1;ratioP1;P1;durP2;ratioP2;P2;SDS_P1;SDS_P2;PMS_P1;PMS_P2;Temp;Humidity;BMP_temperature;BMP_pressure;BME280_temperature;BME280_humidity;BME280_pressure;Samples;Min_cycle;Max_cycle;Signal;HPM_P1;HPM_P2
2022/10/15 00:01:45;;;;;;;22.90;13.93;;;15.30;99.90;;;;;;4997088;28;20184;-68
2022/10/15 00:04:11;;;;;;;22.48;13.77;;;15.30;99.90;;;;;;4980538;28;20195;-68
2022/10/15 00:06:36;;;;;;;25.48;14.18;;;15.40;99.90;;;;;;5006121;28;20187;-67
2022/10/15 00:09:03;;;;;;;22.10;15.30;;;15.40;99.90;;;;;;4979044;28;20521;-68
2022/10/15 00:11:30;;;;;;;28.85;16.05;;;15.50;99.90;;;;;;4983916;28;20184;-68
2022/10/15 00:13:58;;;;;;;22.63;14.35;;;15.50;99.90;;;;;;4986996;28;20176;-68
2022/10/15 00:16:27;;;;;;;23.42;15.52;;;15.60;99.90;;;;;;5004388;28;20228;-68
2022/10/15 00:18:56;;;;;;;27.60;15.95;;;15.60;99.90;;;;;;5009350;28;20190;-68
2022/10/15 00:21:21;;;;;;;26.40;15.73;;;15.70;99.90;;;;;;4994188;28;20176;-69
2022/10/15 00:23:48;;;;;;;27.80;15.15;;;15.70;99.90;;;;;;4970287;28;20180;-68
2022/10/15 00:26:19;;;;;;;27.00;16.13;;;15.80;99.90;;;;;;4995709;28;20222;-68
2022/10/15 00:28:45;;;;;;;28.60;15.80;;;15.70;99.90;;;;;;5005038;28;20274;-66
2022/10/15 00:31:16;;;;;;;29.42;18.13;;;15.70;99.90;;;;;;5006954;28;20271;-66
2022/10/15 00:33:42;;;;;;;28.13;16.33;;;15.70;99.90;;;;;;5006458;28;20544;-66
2022/10/15 00:36:13;;;;;;;25.70;16.10;;;15.70;99.90;;;;;;5010211;28;20195;-67
2022/10/15 00:38:40;;;;;;;26.73;16.27;;;15.80;99.90;;;;;;4996011;28;20226;-67
2022/10/15 00:41:07;;;;;;;25.27;15.18;;;15.90;99.90;;;;;;4997610;28;20708;-67
2022/10/15 00:43:48;;;;;;;24.05;14.93;;;15.90;99.90;;;;;;5001383;28;20242;-67
2022/10/15 00:46:29;;;;;;;28.60;16.52;;;15.90;99.90;;;;;;5002294;28;20273;-67
2022/10/15 00:49:01;;;;;;;23.60;15.60;;;15.90;99.90;;;;;;5003257;28;20539;-67
2022/10/15 00:51:41;;;;;;;24.98;15.57;;;15.90;99.90;;;;;;4994456;28;20189;-67
2022/10/15 00:54:08;;;;;;;23.20;16.08;;;15.80;99.90;;;;;;4995120;28;20625;-67
2022/10/15 00:56:36;;;;;;;22.02;14.68;;;15.90;99.90;;;;;;4990107;28;20219;-67
2022/10/15 00:59:04;;;;;;;22.98;14.68;;;15.80;99.90;;;;;;4994569;28;20187;-66
2022/10/15 01:01:30;;;;;;;25.98;15.77;;;15.90;99.90;;;;;;4991588;28;20192;-66
2022/10/15 01:03:57;;;;;;;23.20;15.05;;;16.00;99.90;;;;;;4999595;28;20242;-66
2022/10/15 01:06:25;;;;;;;24.30;14.80;;;16.10;99.90;;;;;;4983215;28;20175;-67
2022/10/15 01:08:51;;;;;;;29.13;15.93;;;16.00;99.90;;;;;;5008033;28;20237;-67
2022/10/15 01:11:33;;;;;;;29.10;15.30;;;15.90;99.90;;;;;;4977006;28;20220;-66
2022/10/15 01:14:18;;;;;;;24.67;15.73;;;15.80;99.90;;;;;;5008008;28;20179;-67
2022/10/15 01:17:02;;;;;;;23.60;14.65;;;15.80;99.90;;;;;;5011651;28;20223;-68
2022/10/15 01:19:40;;;;;;;24.27;14.40;;;15.80;99.90;;;;;;5007989;28;20270;-67
2022/10/15 01:22:19;;;;;;;28.20;15.98;;;15.90;99.90;;;;;;5004477;28;20187;-67
2022/10/15 01:25:03;;;;;;;25.05;14.82;;;15.80;99.90;;;;;;5012709;28;20171;-67
2022/10/15 01:27:56;;;;;;;29.60;15.93;;;15.80;99.90;;;;;;5001971;28;20180;-67
2022/10/15 01:30:40;;;;;;;27.88;16.63;;;15.80;99.90;;;;;;4994651;28;20546;-69
2022/10/15 01:33:34;;;;;;;26.35;15.50;;;15.80;99.90;;;;;;4994059;28;20643;-66
2022/10/15 01:36:26;;;;;;;24.33;15.65;;;15.80;99.90;;;;;;4999836;28;20207;-67
2022/10/15 01:39:04;;;;;;;25.88;15.43;;;16.00;99.90;;;;;;5009234;28;20561;-66
2022/10/15 01:41:39;;;;;;;28.10;14.57;;;16.00;99.90;;;;;;5001622;28;20191;-67
2022/10/15 01:44:15;;;;;;;30.05;16.13;;;15.90;99.90;;;;;;5000891;28;20180;-66
2022/10/15 01:46:57;;;;;;;25.40;14.93;;;15.90;99.90;;;;;;4996815;28;20187;-67
2022/10/15 01:49:29;;;;;;;24.02;15.07;;;15.70;99.90;;;;;;4998695;28;20266;-67
2022/10/15 01:51:57;;;;;;;25.38;15.25;;;15.70;99.90;;;;;;4999765;28;20175;-67
2022/10/15 01:54:25;;;;;;;21.35;12.95;;;15.90;99.90;;;;;;5008867;28;20180;-67
2022/10/15 01:56:52;;;;;;;26.00;14.63;;;15.90;99.90;;;;;;5006124;28;20291;-67
2022/10/15 01:59:23;;;;;;;27.65;14.43;;;16.00;99.90;;;;;;4982458;28;20184;-67
2022/10/15 02:01:49;;;;;;;26.73;15.40;;;16.00;99.90;;;;;;4997948;28;20202;-67
2022/10/15 02:04:26;;;;;;;25.10;14.20;;;15.90;99.90;;;;;;5011755;28;20688;-68
2022/10/15 02:07:05;;;;;;;23.90;13.05;;;15.90;99.90;;;;;;4995084;28;20543;-67
2022/10/15 02:09:54;;;;;;;23.00;14.73;;;15.80;99.90;;;;;;5001098;28;20190;-67
2022/10/15 02:12:48;;;;;;;23.65;13.68;;;15.80;99.90;;;;;;5006613;28;20316;-67
2022/10/15 02:15:21;;;;;;;25.60;14.90;;;15.90;99.90;;;;;;4992967;28;20200;-67
2022/10/15 02:18:03;;;;;;;27.25;16.00;;;16.10;99.90;;;;;;4998870;28;20213;-69
2022/10/15 02:20:41;;;;;;;29.05;16.13;;;15.90;99.90;;;;;;4995872;28;20199;-66
2022/10/15 02:23:20;;;;;;;29.17;16.20;;;16.00;99.90;;;;;;4997529;28;20184;-66
2022/10/15 02:25:48;;;;;;;25.08;13.50;;;15.90;99.90;;;;;;4999391;28;20261;-67
2022/10/15 02:28:16;;;;;;;30.70;15.73;;;16.00;99.90;;;;;;4988758;28;20247;-66
2022/10/15 02:30:44;;;;;;;30.35;15.75;;;15.90;99.90;;;;;;5011146;28;20187;-67
2022/10/15 02:33:11;;;;;;;33.85;17.02;;;15.90;99.90;;;;;;5011312;28;20230;-67
2022/10/15 02:35:37;;;;;;;25.67;14.35;;;15.90;99.90;;;;;;5008533;28;20204;-66
2022/10/15 02:38:06;;;;;;;26.95;14.65;;;16.00;99.90;;;;;;5002113;28;20191;-66
2022/10/15 02:40:34;;;;;;;24.52;14.48;;;16.00;99.90;;;;;;4990979;28;20194;-66
2022/10/15 02:43:08;;;;;;;29.83;15.52;;;15.80;99.90;;;;;;4967593;28;20179;-66
2022/10/15 02:45:34;;;;;;;28.27;15.75;;;15.80;99.90;;;;;;4986078;28;20195;-67
2022/10/15 02:48:00;;;;;;;28.52;15.23;;;15.70;99.90;;;;;;4996966;28;20603;-67
2022/10/15 02:50:25;;;;;;;29.45;14.27;;;15.70;99.90;;;;;;4988464;28;20267;-68
2022/10/15 02:52:52;;;;;;;33.80;16.02;;;15.80;99.90;;;;;;5010765;28;20199;-66
2022/10/15 02:55:17;;;;;;;24.52;13.63;;;15.80;99.90;;;;;;4994044;28;20527;-67
2022/10/15 02:57:43;;;;;;;28.23;15.57;;;15.80;99.90;;;;;;4997300;28;20200;-67
2022/10/15 03:00:09;;;;;;;34.13;15.63;;;15.60;99.90;;;;;;5015363;28;20215;-67
2022/10/15 03:02:35;;;;;;;31.40;15.40;;;15.60;99.90;;;;;;4983076;28;20246;-67
2022/10/15 03:05:00;;;;;;;27.05;14.50;;;15.50;99.90;;;;;;4987357;28;20192;-67
2022/10/15 03:07:26;;;;;;;27.77;14.18;;;15.50;99.90;;;;;;4987279;28;20191;-68
2022/10/15 03:09:52;;;;;;;32.58;16.13;;;15.50;99.90;;;;;;4983921;28;20557;-67
2022/10/15 03:12:19;;;;;;;28.33;15.85;;;15.50;99.90;;;;;;4990474;28;20611;-66
2022/10/15 03:14:45;;;;;;;29.13;15.98;;;15.60;99.90;;;;;;4998159;28;20192;-66
2022/10/15 03:17:10;;;;;;;30.30;16.42;;;15.50;99.90;;;;;;4985007;28;20227;-67
2022/10/15 03:19:36;;;;;;;25.60;14.55;;;15.50;99.90;;;;;;4989956;28;20199;-66
2022/10/15 03:22:02;;;;;;;26.73;14.20;;;15.30;99.90;;;;;;4981517;28;20191;-67
2022/10/15 03:24:27;;;;;;;31.02;13.88;;;15.40;99.90;;;;;;5007034;28;20187;-67
2022/10/15 03:26:53;;;;;;;27.88;16.05;;;15.40;99.90;;;;;;4977925;28;20541;-67
2022/10/15 03:29:19;;;;;;;29.38;15.02;;;15.40;99.90;;;;;;4993069;28;20649;-67
2022/10/15 03:31:45;;;;;;;26.67;13.38;;;15.30;99.90;;;;;;4997451;28;20195;-67
2022/10/15 03:34:10;;;;;;;31.02;13.43;;;15.40;99.90;;;;;;4996272;28;20274;-68
2022/10/15 03:36:36;;;;;;;27.58;13.35;;;15.30;99.90;;;;;;5009227;28;20202;-66
2022/10/15 03:39:02;;;;;;;26.02;12.88;;;15.20;99.90;;;;;;4995765;28;20198;-66
2022/10/15 03:41:28;;;;;;;28.50;15.00;;;15.10;99.90;;;;;;4999336;28;20184;-67
2022/10/15 03:43:53;;;;;;;25.23;12.40;;;15.20;99.90;;;;;;4974518;28;20245;-67
2022/10/15 03:46:19;;;;;;;25.77;13.57;;;15.20;99.90;;;;;;4991238;28;20249;-66
2022/10/15 03:48:49;;;;;;;23.52;13.10;;;15.20;99.90;;;;;;5003151;28;20246;-66
2022/10/15 03:51:14;;;;;;;25.05;14.40;;;15.10;99.90;;;;;;5005213;28;20188;-66
2022/10/15 03:53:40;;;;;;;24.65;13.43;;;15.00;99.90;;;;;;4979728;28;20194;-66
2022/10/15 03:56:06;;;;;;;26.80;13.40;;;15.00;99.90;;;;;;4991230;28;20243;-66
2022/10/15 03:58:32;;;;;;;23.27;12.90;;;15.00;99.90;;;;;;4991501;28;20326;-66
2022/10/15 04:00:57;;;;;;;28.67;13.23;;;15.00;99.90;;;;;;4983356;28;20223;-66
2022/10/15 04:03:23;;;;;;;26.40;14.52;;;15.00;99.90;;;;;;4976789;28;20187;-66
2022/10/15 04:05:50;;;;;;;26.85;13.45;;;15.00;99.90;;;;;;4978903;28;20640;-66
2022/10/15 04:08:16;;;;;;;27.73;13.63;;;15.10;99.90;;;;;;4990019;28;20192;-66
2022/10/15 04:10:42;;;;;;;30.27;14.70;;;15.00;99.90;;;;;;4994461;28;20554;-66
2022/10/15 04:13:07;;;;;;;25.60;14.85;;;14.90;99.90;;;;;;4996497;28;20187;-66
2022/10/15 04:15:33;;;;;;;27.05;13.05;;;15.00;99.90;;;;;;4994040;28;20354;-66
2022/10/15 04:17:58;;;;;;;28.77;14.18;;;15.00;99.90;;;;;;4999252;28;20196;-68
2022/10/15 04:20:24;;;;;;;25.65;14.60;;;15.10;99.90;;;;;;4975784;28;20191;-66
2022/10/15 04:22:50;;;;;;;26.65;12.93;;;15.10;99.90;;;;;;5002681;28;20661;-66
2022/10/15 04:25:16;;;;;;;29.60;14.45;;;15.10;99.90;;;;;;4995243;28;20539;-66
2022/10/15 04:27:41;;;;;;;26.60;14.23;;;15.20;99.90;;;;;;5004366;28;20518;-66
2022/10/15 04:30:08;;;;;;;26.88;14.07;;;15.20;99.90;;;;;;4996502;28;20195;-66
2022/10/15 04:32:33;;;;;;;27.23;13.68;;;15.30;99.90;;;;;;5004664;28;20641;-66
2022/10/15 04:34:59;;;;;;;27.02;14.93;;;15.40;99.90;;;;;;4980342;28;20278;-67
2022/10/15 04:37:25;;;;;;;24.52;12.57;;;15.30;99.90;;;;;;4996547;28;20211;-66
2022/10/15 04:39:50;;;;;;;27.73;13.77;;;15.20;99.90;;;;;;5004575;28;20183;-66
2022/10/15 04:42:16;;;;;;;26.48;13.35;;;15.20;99.90;;;;;;5003930;28;20561;-66
2022/10/15 04:44:41;;;;;;;23.77;12.82;;;15.10;99.90;;;;;;4975136;28;20180;-66
2022/10/15 04:47:07;;;;;;;23.95;11.32;;;15.10;99.90;;;;;;5011365;28;20187;-68
2022/10/15 04:49:33;;;;;;;23.08;12.25;;;14.90;99.90;;;;;;4977554;28;20202;-67
2022/10/15 04:51:58;;;;;;;20.40;10.65;;;14.90;99.90;;;;;;5008432;28;20481;-66
2022/10/15 04:54:24;;;;;;;25.35;11.45;;;14.90;99.90;;;;;;5009080;28;20203;-67
2022/10/15 04:56:49;;;;;;;22.35;11.18;;;15.00;99.90;;;;;;4999652;28;20293;-67
2022/10/15 04:59:15;;;;;;;23.50;11.18;;;15.00;99.90;;;;;;4991058;28;20290;-67
2022/10/15 05:01:41;;;;;;;23.33;10.38;;;15.00;99.90;;;;;;4978759;28;20238;-66
2022/10/15 05:04:11;;;;;;;21.60;11.05;;;15.00;99.90;;;;;;4978911;28;20747;-68
2022/10/15 05:06:37;;;;;;;22.00;11.02;;;15.00;99.90;;;;;;5012509;28;20198;-66
2022/10/15 05:09:02;;;;;;;20.15;11.07;;;15.00;99.90;;;;;;4992562;28;20192;-67
2022/10/15 05:11:28;;;;;;;17.45;9.85;;;15.10;99.90;;;;;;4971501;28;20196;-67
2022/10/15 05:13:55;;;;;;;22.00;11.20;;;15.00;99.90;;;;;;4976222;28;20199;-66
2022/10/15 05:16:28;;;;;;;18.45;9.68;;;15.00;99.90;;;;;;4998380;28;20247;-66
2022/10/15 05:19:07;;;;;;;20.92;9.18;;;14.90;99.90;;;;;;4993588;28;20187;-66
2022/10/15 05:21:34;;;;;;;15.43;9.82;;;14.90;99.90;;;;;;4993912;28;20187;-67
2022/10/15 05:24:00;;;;;;;19.30;10.15;;;14.90;99.90;;;;;;4972402;28;20286;-66
2022/10/15 05:26:28;;;;;;;16.77;8.32;;;15.00;99.90;;;;;;4991872;28;20235;-66
2022/10/15 05:28:56;;;;;;;15.52;8.48;;;15.10;99.90;;;;;;5003446;28;20207;-66
2022/10/15 05:31:24;;;;;;;16.50;7.53;;;15.20;99.90;;;;;;4996904;28;20191;-66
2022/10/15 05:33:51;;;;;;;15.13;7.32;;;15.20;99.90;;;;;;5003917;28;20192;-66
2022/10/15 05:36:19;;;;;;;14.65;7.93;;;15.20;99.90;;;;;;5000763;28;20283;-66
2022/10/15 05:38:46;;;;;;;10.95;6.15;;;15.10;99.90;;;;;;4990814;28;20188;-66
2022/10/15 05:41:12;;;;;;;13.48;6.63;;;15.10;99.90;;;;;;4986233;28;20564;-66
2022/10/15 05:43:38;;;;;;;16.70;7.60;;;15.10;99.90;;;;;;5011025;28;20199;-66
2022/10/15 05:46:03;;;;;;;13.88;6.82;;;15.10;99.90;;;;;;4992832;28;20191;-66
2022/10/15 05:48:30;;;;;;;13.02;6.53;;;15.20;99.90;;;;;;5007225;28;20262;-67
2022/10/15 05:51:07;;;;;;;14.68;7.50;;;15.30;99.90;;;;;;5003941;28;20192;-66
2022/10/15 05:53:33;;;;;;;14.07;7.13;;;15.20;99.90;;;;;;4999704;28;20175;-67
2022/10/15 05:55:59;;;;;;;12.40;6.72;;;15.20;99.90;;;;;;4993968;28;20613;-66
2022/10/15 05:58:26;;;;;;;10.07;5.65;;;15.20;99.90;;;;;;4974880;28;20219;-66
2022/10/15 06:00:59;;;;;;;10.20;6.10;;;15.10;99.90;;;;;;4987740;28;20175;-67
2022/10/15 06:03:26;;;;;;;11.27;6.95;;;15.20;99.90;;;;;;4988734;28;20183;-67
2022/10/15 06:05:52;;;;;;;8.85;5.07;;;15.20;99.90;;;;;;4992630;28;20195;-67
2022/10/15 06:08:18;;;;;;;11.85;5.90;;;15.20;99.90;;;;;;5000099;28;20676;-66
2022/10/15 06:10:44;;;;;;;8.77;5.45;;;15.20;99.90;;;;;;4989617;28;20200;-66
2022/10/15 06:13:10;;;;;;;9.80;5.10;;;15.20;99.90;;;;;;4990335;28;20187;-66
2022/10/15 06:15:40;;;;;;;11.85;5.65;;;15.30;99.90;;;;;;4987494;28;20322;-65
2022/10/15 06:18:06;;;;;;;12.82;5.47;;;15.30;99.90;;;;;;4980176;28;20270;-64
2022/10/15 06:20:32;;;;;;;8.95;5.28;;;15.40;99.90;;;;;;4969667;28;20279;-65
2022/10/15 06:23:01;;;;;;;7.72;4.55;;;15.30;99.90;;;;;;5006762;28;20198;-65
2022/10/15 06:25:26;;;;;;;10.80;5.53;;;15.30;99.90;;;;;;4983370;28;20235;-67
2022/10/15 06:27:52;;;;;;;9.52;4.85;;;15.30;99.90;;;;;;4981619;28;20184;-66
2022/10/15 06:30:19;;;;;;;8.68;5.03;;;15.30;99.90;;;;;;4983074;28;20668;-66
2022/10/15 06:32:49;;;;;;;11.68;5.13;;;15.40;99.90;;;;;;4993909;28;20287;-66
2022/10/15 06:35:17;;;;;;;8.68;5.25;;;15.50;99.90;;;;;;4987509;28;20279;-66
2022/10/15 06:37:42;;;;;;;9.07;5.35;;;15.70;99.90;;;;;;4985516;28;20657;-65
2022/10/15 06:40:11;;;;;;;7.65;5.32;;;15.60;99.90;;;;;;4997433;28;20245;-65
2022/10/15 06:42:37;;;;;;;8.80;4.82;;;15.60;99.90;;;;;;5013538;28;20187;-65
2022/10/15 06:45:04;;;;;;;9.63;5.63;;;15.70;99.90;;;;;;5010929;28;20552;-65
2022/10/15 06:47:30;;;;;;;8.95;5.10;;;15.70;99.90;;;;;;4977017;28;20574;-66
2022/10/15 06:49:56;;;;;;;9.93;4.68;;;15.70;99.90;;;;;;4995586;28;20203;-65
2022/10/15 06:52:22;;;;;;;9.10;5.40;;;15.90;99.90;;;;;;4992855;28;20584;-66
2022/10/15 06:54:48;;;;;;;8.35;4.65;;;15.90;99.90;;;;;;4995949;28;20211;-66
2022/10/15 06:57:14;;;;;;;7.60;4.72;;;15.90;99.90;;;;;;4998553;28;20212;-65
2022/10/15 06:59:39;;;;;;;7.35;3.85;;;15.90;99.90;;;;;;5003571;28;20187;-65
2022/10/15 07:02:08;;;;;;;7.75;4.72;;;16.00;99.90;;;;;;4989835;28;20663;-66
2022/10/15 07:04:34;;;;;;;7.00;4.47;;;16.10;99.90;;;;;;5005989;28;20188;-66
2022/10/15 07:07:00;;;;;;;8.25;4.43;;;16.10;99.90;;;;;;4987342;28;20352;-65
2022/10/15 07:09:25;;;;;;;8.45;4.22;;;16.00;99.90;;;;;;4992617;28;20210;-65
2022/10/15 07:11:52;;;;;;;10.18;4.85;;;16.10;99.90;;;;;;5004443;28;20214;-66
2022/10/15 07:14:17;;;;;;;8.80;4.55;;;16.10;99.90;;;;;;5008772;28;20200;-66
2022/10/15 07:16:43;;;;;;;7.93;4.40;;;16.20;99.90;;;;;;4983243;28;20227;-66
2022/10/15 07:19:09;;;;;;;8.75;4.38;;;16.30;99.90;;;;;;4970850;28;20196;-65
2022/10/15 07:21:34;;;;;;;8.13;4.82;;;16.30;99.90;;;;;;5013284;28;20256;-67
2022/10/15 07:24:01;;;;;;;6.90;4.20;;;16.30;99.90;;;;;;4994995;28;20200;-67
2022/10/15 07:26:29;;;;;;;5.22;3.97;;;16.20;99.90;;;;;;4989179;28;20183;-65
2022/10/15 07:28:56;;;;;;;10.45;4.75;;;16.10;99.90;;;;;;4993966;28;20187;-66
2022/10/15 07:31:22;;;;;;;8.57;4.32;;;16.10;99.90;;;;;;5003923;28;20213;-66
2022/10/15 07:33:50;;;;;;;9.20;4.00;;;16.20;99.90;;;;;;5001538;28;20191;-66
2022/10/15 07:36:16;;;;;;;8.30;4.68;;;16.30;99.90;;;;;;4980316;28;20571;-66
2022/10/15 07:38:42;;;;;;;9.05;5.13;;;16.50;99.90;;;;;;5003654;28;20180;-66
2022/10/15 07:41:09;;;;;;;8.60;4.82;;;16.70;99.90;;;;;;4993121;28;20191;-65
2022/10/15 07:43:35;;;;;;;6.88;4.22;;;16.90;99.90;;;;;;5002554;28;20278;-64
2022/10/15 07:46:02;;;;;;;10.40;5.88;;;17.00;99.90;;;;;;4984066;28;20267;-65
2022/10/15 07:48:28;;;;;;;7.90;5.00;;;17.10;99.90;;;;;;5012604;28;20218;-64
2022/10/15 07:51:02;;;;;;;6.55;3.88;;;17.20;99.90;;;;;;4989570;28;20253;-66
2022/10/15 07:53:29;;;;;;;8.63;3.97;;;17.20;99.90;;;;;;5010838;28;20689;-66
2022/10/15 07:56:05;;;;;;;6.90;3.92;;;17.20;99.90;;;;;;4995223;28;20219;-66
2022/10/15 07:58:33;;;;;;;10.52;3.75;;;17.10;99.90;;;;;;5000077;28;20179;-66
2022/10/15 08:01:01;;;;;;;8.05;4.40;;;17.00;99.90;;;;;;5007652;28;20198;-65
2022/10/15 08:03:27;;;;;;;6.22;3.72;;;16.90;99.90;;;;;;4993241;28;20175;-65
2022/10/15 08:05:54;;;;;;;8.23;3.33;;;16.70;99.90;;;;;;5009414;28;20210;-64
2022/10/15 08:08:23;;;;;;;6.65;3.58;;;16.60;99.90;;;;;;5008336;28;20191;-65
2022/10/15 08:10:49;;;;;;;4.78;3.92;;;16.60;99.90;;;;;;4997882;28;20649;-65
2022/10/15 08:13:14;;;;;;;4.93;3.33;;;16.70;99.90;;;;;;4965929;28;20202;-65
2022/10/15 08:15:41;;;;;;;4.78;3.35;;;16.70;99.90;;;;;;4975963;28;20216;-65
2022/10/15 08:18:08;;;;;;;3.53;2.90;;;16.70;99.90;;;;;;4981292;28;20640;-65
2022/10/15 08:20:35;;;;;;;4.28;3.38;;;16.60;99.90;;;;;;5005976;28;20282;-66
2022/10/15 08:23:01;;;;;;;4.50;2.58;;;16.50;99.90;;;;;;5008439;28;20277;-65
2022/10/15 08:25:27;;;;;;;5.03;2.80;;;16.60;99.90;;;;;;4986813;28;20648;-66
2022/10/15 08:27:53;;;;;;;2.92;2.33;;;16.60;99.90;;;;;;4982674;28;20198;-65
2022/10/15 08:30:19;;;;;;;3.47;2.30;;;16.60;99.90;;;;;;4990172;28;20555;-65
2022/10/15 08:32:45;;;;;;;3.15;2.10;;;16.50;99.90;;;;;;4977157;28;20184;-66
2022/10/15 08:35:11;;;;;;;2.58;1.77;;;16.50;99.90;;;;;;4993840;28;20180;-65
2022/10/15 08:37:36;;;;;;;2.45;1.60;;;16.70;99.90;;;;;;5005872;28;20231;-65
2022/10/15 08:40:03;;;;;;;4.13;2.63;;;16.70;99.90;;;;;;4986153;28;20577;-66
2022/10/15 08:42:40;;;;;;;2.45;1.50;;;16.80;99.90;;;;;;5001514;28;20270;-66
2022/10/15 08:45:29;;;;;;;2.97;1.85;;;16.90;99.90;;;;;;4993746;28;20544;-66
2022/10/15 08:48:04;;;;;;;2.13;1.70;;;16.90;99.90;;;;;;5005880;28;20188;-66
2022/10/15 08:50:43;;;;;;;2.35;1.52;;;16.80;99.90;;;;;;4989886;28;20298;-65
2022/10/15 08:53:21;;;;;;;3.03;1.98;;;16.90;99.90;;;;;;4999464;28;20631;-67
2022/10/15 08:55:53;;;;;;;1.48;1.38;;;17.00;99.90;;;;;;4992643;28;20206;-65
2022/10/15 08:58:45;;;;;;;1.20;1.13;;;17.00;99.90;;;;;;5003868;28;20532;-64
2022/10/15 09:01:32;;;;;;;0.90;0.90;;;17.10;99.90;;;;;;4971535;28;20198;-65
2022/10/15 09:04:23;;;;;;;2.72;1.00;;;17.00;99.90;;;;;;4983006;28;20198;-63
2022/10/15 09:07:21;;;;;;;1.73;1.63;;;17.00;99.90;;;;;;5009612;28;20221;-64
2022/10/15 09:09:49;;;;;;;2.65;1.05;;;17.10;99.90;;;;;;4995706;28;20616;-63
2022/10/15 09:12:40;;;;;;;1.40;1.25;;;17.20;99.90;;;;;;4988707;28;20242;-64
2022/10/15 09:15:12;;;;;;;1.38;1.17;;;17.30;99.90;;;;;;4981259;28;20652;-64
2022/10/15 09:17:40;;;;;;;0.90;0.85;;;17.40;99.90;;;;;;4973699;28;20751;-64
2022/10/15 09:20:13;;;;;;;1.45;1.35;;;17.40;99.90;;;;;;5002138;28;20219;-65
2022/10/15 09:22:39;;;;;;;1.85;1.48;;;17.40;99.90;;;;;;5009168;28;20191;-63
2022/10/15 09:25:16;;;;;;;1.13;1.13;;;17.60;99.90;;;;;;4985866;28;20207;-63
2022/10/15 09:27:42;;;;;;;1.70;1.48;;;17.70;99.90;;;;;;5004005;28;20179;-64
2022/10/15 09:30:41;;;;;;;1.38;1.27;;;17.70;99.90;;;;;;5013926;28;20191;-65
2022/10/15 09:33:40;;;;;;;1.23;1.13;;;17.80;99.90;;;;;;5006229;28;20211;-65
2022/10/15 09:36:09;;;;;;;1.05;1.02;;;17.70;99.90;;;;;;5007872;28;20608;-64
2022/10/15 09:39:06;;;;;;;1.10;1.10;;;17.80;99.90;;;;;;4998353;28;20187;-68
2022/10/15 09:41:52;;;;;;;1.38;1.27;;;17.90;99.90;;;;;;4991821;28;20558;-70
2022/10/15 09:44:24;;;;;;;1.42;1.25;;;17.90;99.90;;;;;;5003748;28;20643;-66
2022/10/15 09:46:50;;;;;;;1.70;1.60;;;18.10;99.90;;;;;;5002677;28;20180;-65
2022/10/15 09:49:24;;;;;;;1.50;1.40;;;18.20;99.90;;;;;;5012519;28;20282;-64
2022/10/15 09:52:18;;;;;;;1.58;1.48;;;18.20;99.90;;;;;;5012402;28;20179;-67
2022/10/15 09:55:17;;;;;;;1.80;1.70;;;18.30;99.90;;;;;;5010554;28;20193;-64
2022/10/15 09:57:49;;;;;;;1.52;1.42;;;18.60;99.90;;;;;;5003929;28;20205;-68
2022/10/15 10:00:14;;;;;;;2.47;1.70;;;18.90;99.90;;;;;;5006527;28;20175;-66
2022/10/15 10:02:40;;;;;;;1.70;1.42;;;19.00;99.90;;;;;;4974344;28;20247;-69
2022/10/15 10:05:30;;;;;;;2.95;1.50;;;19.00;99.90;;;;;;4992156;28;20239;-68
2022/10/15 10:08:15;;;;;;;1.70;1.60;;;18.90;99.90;;;;;;4996003;28;20271;-66
2022/10/15 10:10:41;;;;;;;3.10;2.22;;;18.70;99.90;;;;;;5008091;28;20179;-66
2022/10/15 10:13:22;;;;;;;3.50;1.67;;;18.60;99.90;;;;;;4998292;28;20187;-67
2022/10/15 10:15:50;;;;;;;1.67;1.33;;;18.70;99.90;;;;;;5008600;28;20195;-65
2022/10/15 10:18:21;;;;;;;4.20;1.60;;;18.80;99.90;;;;;;4997682;28;20271;-67
2022/10/15 10:20:57;;;;;;;1.98;1.88;;;18.70;99.90;;;;;;4996494;28;20186;-67
2022/10/15 10:23:30;;;;;;;2.10;1.80;;;18.60;99.90;;;;;;5011385;28;20555;-66
2022/10/15 10:25:58;;;;;;;12.85;2.00;;;18.70;99.90;;;;;;5011172;28;20191;-66
2022/10/15 10:28:41;;;;;;;1.38;1.30;;;18.90;99.90;;;;;;5006629;28;20645;-67
2022/10/15 10:31:08;;;;;;;1.58;1.48;;;19.00;99.90;;;;;;4996198;28;20176;-67
2022/10/15 10:33:51;;;;;;;3.78;2.17;;;19.10;99.90;;;;;;5011336;28;20208;-66
2022/10/15 10:36:32;;;;;;;1.55;1.45;;;19.20;99.90;;;;;;4978689;28;20617;-65
2022/10/15 10:39:12;;;;;;;2.05;1.50;;;19.20;99.90;;;;;;4995665;28;20288;-65
2022/10/15 10:41:53;;;;;;;1.00;1.00;;;19.20;99.90;;;;;;5000834;28;20172;-66
2022/10/15 10:44:40;;;;;;;1.20;1.10;;;19.20;99.90;;;;;;4984561;28;20186;-68
2022/10/15 10:47:13;;;;;;;22.10;5.20;;;19.20;99.90;;;;;;5010391;28;20235;-70
2022/10/15 10:49:40;;;;;;;1.38;1.27;;;19.20;99.90;;;;;;4991875;28;20215;-65
2022/10/15 10:52:19;;;;;;;7.93;2.10;;;19.30;99.90;;;;;;5008526;28;20191;-64
2022/10/15 10:54:46;;;;;;;1.70;1.60;;;19.50;99.90;;;;;;5010680;28;20540;-65
2022/10/15 10:57:16;;;;;;;8.05;1.60;;;19.50;99.90;;;;;;5003574;28;20203;-64
2022/10/15 10:59:49;;;;;;;3.28;1.60;;;19.60;99.90;;;;;;4996848;28;20214;-65
2022/10/15 11:02:15;;;;;;;2.17;1.67;;;19.70;99.90;;;;;;5013381;28;20187;-64
2022/10/15 11:04:40;;;;;;;3.55;2.42;;;19.80;99.90;;;;;;5005691;28;20739;-67
2022/10/15 11:07:26;;;;;;;6.65;1.45;;;19.90;99.90;;;;;;4980413;28;20192;-67
2022/10/15 11:10:01;;;;;;;2.00;1.50;;;20.00;99.90;;;;;;5004046;28;20206;-65
2022/10/15 11:12:46;;;;;;;1.73;1.27;;;20.10;99.90;;;;;;5006071;28;20581;-65
2022/10/15 11:15:32;;;;;;;4.00;1.30;;;20.30;99.90;;;;;;4998281;28;20210;-64
2022/10/15 11:18:42;;;;;;;1.05;1.05;;;20.40;99.90;;;;;;4985411;28;20656;-64
2022/10/15 11:21:26;;;;;;;1.70;1.58;;;20.30;99.90;;;;;;5007694;28;20191;-64
2022/10/15 11:23:54;;;;;;;1.50;1.40;;;20.60;99.90;;;;;;5003275;28;20179;-64
2022/10/15 11:26:23;;;;;;;1.60;1.50;;;20.60;99.90;;;;;;4996120;28;20233;-64
2022/10/15 11:28:48;;;;;;;1.10;1.10;;;20.60;99.90;;;;;;4996111;28;20270;-62
2022/10/15 11:31:26;;;;;;;2.80;1.15;;;20.50;99.90;;;;;;4996127;28;20274;-64
2022/10/15 11:34:06;;;;;;;1.30;1.20;;;20.40;99.90;;;;;;5003621;28;20183;-65
2022/10/15 11:36:51;;;;;;;1.42;1.33;;;20.00;99.90;;;;;;4997566;28;20740;-64
2022/10/15 11:39:34;;;;;;;1.30;1.20;;;20.00;99.90;;;;;;4993671;28;20188;-64
2022/10/15 11:42:20;;;;;;;1.10;1.10;;;20.00;99.90;;;;;;5005613;28;20204;-63
2022/10/15 11:45:07;;;;;;;1.05;1.05;;;20.00;99.90;;;;;;5010927;28;20313;-64
2022/10/15 11:48:07;;;;;;;1.67;1.52;;;20.20;99.90;;;;;;5012539;28;20206;-67
2022/10/15 11:50:59;;;;;;;1.17;1.10;;;20.20;99.90;;;;;;4985930;28;20218;-66
2022/10/15 11:53:52;;;;;;;1.58;1.48;;;20.40;99.90;;;;;;5012873;28;20214;-66
2022/10/15 11:56:27;;;;;;;1.23;1.13;;;20.50;99.90;;;;;;4997505;28;20235;-68
2022/10/15 11:59:27;;;;;;;1.35;1.25;;;20.70;99.90;;;;;;4994398;28;20199;-68
2022/10/15 12:02:07;;;;;;;0.90;0.90;;;20.80;99.90;;;;;;4993663;28;20196;-71
2022/10/15 12:04:39;;;;;;;1.05;1.05;;;20.90;99.90;;;;;;4997427;28;20184;-67
2022/10/15 12:07:09;;;;;;;0.90;0.90;;;20.80;99.90;;;;;;5005666;28;20195;-68
2022/10/15 12:09:39;;;;;;;1.20;1.10;;;20.90;99.90;;;;;;4999429;28;20175;-67
2022/10/15 12:12:39;;;;;;;1.30;1.25;;;21.10;99.90;;;;;;5139018;27;20573;-64
2022/10/15 12:15:35;;;;;;;0.98;0.98;;;21.00;99.90;;;;;;5111054;27;20211;-65
2022/10/15 12:18:17;;;;;;;0.80;0.80;;;21.10;99.90;;;;;;5109198;27;20732;-67
2022/10/15 12:20:44;;;;;;;2.28;1.10;;;21.00;99.90;;;;;;5113866;28;20278;-67
2022/10/15 12:23:25;;;;;;;2.80;1.42;;;20.70;99.90;;;;;;5133481;27;20187;-68
2022/10/15 12:25:51;;;;;;;1.20;1.10;;;20.50;99.90;;;;;;5112511;27;20203;-68
2022/10/15 12:28:30;;;;;;;1.20;1.10;;;20.40;99.90;;;;;;5110554;27;20640;-69
2022/10/15 12:31:03;;;;;;;1.77;1.67;;;19.90;99.90;;;;;;5120907;27;20210;-68
2022/10/15 12:33:44;;;;;;;1.17;1.17;;;19.80;99.90;;;;;;5113265;27;20258;-68
2022/10/15 12:36:29;;;;;;;0.77;0.75;;;19.70;99.90;;;;;;5110635;27;20629;-67
2022/10/15 12:39:00;;;;;;;0.60;0.60;;;19.30;99.90;;;;;;5118002;27;20237;-75
2022/10/15 12:41:42;;;;;;;1.55;0.85;;;19.20;99.90;;;;;;5114463;27;20194;-66
2022/10/15 12:44:18;;;;;;;0.50;0.50;;;19.00;99.90;;;;;;5126005;28;20176;-67
2022/10/15 12:46:44;;;;;;;0.80;0.68;;;18.90;99.90;;;;;;5108834;27;20622;-66
2022/10/15 12:49:58;;;;;;;0.63;0.63;;;18.90;99.90;;;;;;5113105;28;20278;-67
2022/10/15 12:53:02;;;;;;;0.40;0.40;;;19.10;99.90;;;;;;5075382;27;20209;-70
2022/10/15 12:55:38;;;;;;;0.80;0.50;;;19.10;99.90;;;;;;5117376;27;20182;-67
2022/10/15 12:58:33;;;;;;;0.57;0.40;;;18.90;99.90;;;;;;5116823;27;20191;-65
2022/10/15 13:01:19;;;;;;;0.60;0.60;;;19.00;99.90;;;;;;5116987;27;20294;-65
2022/10/15 13:03:48;;;;;;;4.65;0.80;;;19.30;99.90;;;;;;5104309;27;20192;-66